sensor_id;sensor_type;location;lat;lon;timestamp;P1;durP1;ratioP1;P2;durP2;ratioP2
47603;SDS011;33326;51.116;6.900;2022-07-26T00:01:39;2.85;;;1.08;;
47603;SDS011;33326;51.116;6.900;2022-07-26T00:06:42;3.53;;;1.00;;
47603;SDS011;33326;51.116;6.900;2022-07-26T00:11:44;5.60;;;1.00;;
47603;SDS011;33326;51.116;6.900;2022-07-26T00:16:46;4.65;;;0.88;;
47603;SDS011;33326;51.116;6.900;2022-07-26T00:21:50;4.75;;;1.08;;
47603;SDS011;33326;51.116;6.900;2022-07-26T00:27:12;5.50;;;1.33;;
47603;SDS011;33326;51.116;6.900;2022-07-26T00:32:13;7.22;;;1.30;;
47603;SDS011;33326;51.116;6.900;2022-07-26T00:37:17;4.88;;;1.23;;
47603;SDS011;33326;51.116;6.900;2022-07-26T00:42:19;2.20;;;1.10;;
47603;SDS011;33326;51.116;6.900;2022-07-26T00:47:21;4.32;;;1.20;;
47603;SDS011;33326;51.116;6.900;2022-07-26T00:52:24;3.83;;;1.00;;
47603;SDS011;33326;51.116;6.900;2022-07-26T00:57:26;8.07;;;1.38;;
47603;SDS011;33326;51.116;6.900;2022-07-26T01:02:29;3.08;;;1.10;;
47603;SDS011;33326;51.116;6.900;2022-07-26T01:07:32;6.18;;;1.38;;
47603;SDS011;33326;51.116;6.900;2022-07-26T01:12:36;4.43;;;1.10;;
47603;SDS011;33326;51.116;6.900;2022-07-26T01:17:38;3.20;;;1.10;;
47603;SDS011;33326;51.116;6.900;2022-07-26T01:22:42;4.13;;;1.10;;
47603;SDS011;33326;51.116;6.900;2022-07-26T01:27:43;5.43;;;1.88;;
47603;SDS011;33326;51.116;6.900;2022-07-26T01:32:45;7.50;;;1.58;;
47603;SDS011;33326;51.116;6.900;2022-07-26T01:37:48;7.10;;;1.25;;
47603;SDS011;33326;51.116;6.900;2022-07-26T01:42:50;5.53;;;1.30;;
47603;SDS011;33326;51.116;6.900;2022-07-26T01:47:52;5.75;;;1.30;;
47603;SDS011;33326;51.116;6.900;2022-07-26T01:52:56;8.15;;;1.42;;
47603;SDS011;33326;51.116;6.900;2022-07-26T01:57:57;3.92;;;1.50;;
47603;SDS011;33326;51.116;6.900;2022-07-26T02:02:59;6.90;;;1.38;;
47603;SDS011;33326;51.116;6.900;2022-07-26T02:08:03;5.03;;;1.48;;
47603;SDS011;33326;51.116;6.900;2022-07-26T02:13:05;5.18;;;1.35;;
47603;SDS011;33326;51.116;6.900;2022-07-26T02:18:07;7.72;;;1.42;;
47603;SDS011;33326;51.116;6.900;2022-07-26T02:23:10;5.70;;;1.50;;
47603;SDS011;33326;51.116;6.900;2022-07-26T02:28:12;4.88;;;1.45;;
47603;SDS011;33326;51.116;6.900;2022-07-26T02:33:15;8.38;;;1.65;;
47603;SDS011;33326;51.116;6.900;2022-07-26T02:38:18;7.45;;;1.55;;
47603;SDS011;33326;51.116;6.900;2022-07-26T02:43:20;4.80;;;1.73;;
47603;SDS011;33326;51.116;6.900;2022-07-26T02:48:22;4.40;;;1.35;;
47603;SDS011;33326;51.116;6.900;2022-07-26T02:53:25;7.35;;;1.73;;
47603;SDS011;33326;51.116;6.900;2022-07-26T02:58:27;8.43;;;1.65;;
47603;SDS011;33326;51.116;6.900;2022-07-26T03:03:29;17.30;;;1.95;;
47603;SDS011;33326;51.116;6.900;2022-07-26T03:08:33;4.60;;;1.77;;
47603;SDS011;33326;51.116;6.900;2022-07-26T03:13:34;7.28;;;2.10;;
47603;SDS011;33326;51.116;6.900;2022-07-26T03:18:36;8.10;;;1.52;;
47603;SDS011;33326;51.116;6.900;2022-07-26T03:23:39;13.70;;;2.95;;
47603;SDS011;33326;51.116;6.900;2022-07-26T03:28:41;7.28;;;1.60;;
47603;SDS011;33326;51.116;6.900;2022-07-26T03:33:44;9.00;;;1.70;;
47603;SDS011;33326;51.116;6.900;2022-07-26T03:38:47;7.72;;;1.92;;
47603;SDS011;33326;51.116;6.900;2022-07-26T03:43:49;8.65;;;2.13;;
47603;SDS011;33326;51.116;6.900;2022-07-26T03:48:50;10.60;;;2.38;;
47603;SDS011;33326;51.116;6.900;2022-07-26T03:53:54;7.40;;;2.30;;
47603;SDS011;33326;51.116;6.900;2022-07-26T03:58:56;10.45;;;2.10;;
47603;SDS011;33326;51.116;6.900;2022-07-26T04:04:00;8.75;;;2.10;;
47603;SDS011;33326;51.116;6.900;2022-07-26T04:09:03;11.02;;;2.38;;
47603;SDS011;33326;51.116;6.900;2022-07-26T04:14:06;10.60;;;2.33;;
47603;SDS011;33326;51.116;6.900;2022-07-26T04:19:08;10.90;;;2.30;;
47603;SDS011;33326;51.116;6.900;2022-07-26T04:24:12;12.55;;;2.50;;
47603;SDS011;33326;51.116;6.900;2022-07-26T04:29:13;8.80;;;2.25;;
47603;SDS011;33326;51.116;6.900;2022-07-26T04:34:15;8.73;;;2.65;;
47603;SDS011;33326;51.116;6.900;2022-07-26T04:39:18;10.18;;;2.67;;
47603;SDS011;33326;51.116;6.900;2022-07-26T04:44:23;9.10;;;2.47;;
47603;SDS011;33326;51.116;6.900;2022-07-26T04:49:28;10.98;;;2.95;;
47603;SDS011;33326;51.116;6.900;2022-07-26T04:54:31;10.95;;;2.97;;
47603;SDS011;33326;51.116;6.900;2022-07-26T04:59:33;12.60;;;3.15;;
47603;SDS011;33326;51.116;6.900;2022-07-26T05:04:35;13.23;;;3.40;;
47603;SDS011;33326;51.116;6.900;2022-07-26T05:09:38;9.90;;;3.00;;
47603;SDS011;33326;51.116;6.900;2022-07-26T05:14:39;10.40;;;2.83;;
47603;SDS011;33326;51.116;6.900;2022-07-26T05:19:43;13.63;;;3.55;;
47603;SDS011;33326;51.116;6.900;2022-07-26T05:24:46;13.45;;;2.83;;
47603;SDS011;33326;51.116;6.900;2022-07-26T05:29:48;14.68;;;3.17;;
47603;SDS011;33326;51.116;6.900;2022-07-26T05:34:50;10.85;;;3.03;;
47603;SDS011;33326;51.116;6.900;2022-07-26T05:39:53;10.85;;;3.08;;
47603;SDS011;33326;51.116;6.900;2022-07-26T05:44:55;10.60;;;2.90;;
47603;SDS011;33326;51.116;6.900;2022-07-26T05:49:57;13.27;;;2.88;;
47603;SDS011;33326;51.116;6.900;2022-07-26T05:55:00;10.82;;;3.17;;
47603;SDS011;33326;51.116;6.900;2022-07-26T06:00:02;15.63;;;3.60;;
47603;SDS011;33326;51.116;6.900;2022-07-26T06:05:12;13.23;;;3.55;;
47603;SDS011;33326;51.116;6.900;2022-07-26T06:10:16;14.25;;;3.58;;
47603;SDS011;33326;51.116;6.900;2022-07-26T06:15:17;9.88;;;2.85;;
47603;SDS011;33326;51.116;6.900;2022-07-26T06:20:20;11.57;;;3.55;;
47603;SDS011;33326;51.116;6.900;2022-07-26T06:25:23;11.43;;;3.33;;
47603;SDS011;33326;51.116;6.900;2022-07-26T06:30:25;20.58;;;4.93;;
47603;SDS011;33326;51.116;6.900;2022-07-26T06:35:26;10.95;;;3.53;;
47603;SDS011;33326;51.116;6.900;2022-07-26T06:40:32;16.48;;;4.20;;
47603;SDS011;33326;51.116;6.900;2022-07-26T06:45:34;13.45;;;3.83;;
47603;SDS011;33326;51.116;6.900;2022-07-26T06:50:36;17.33;;;4.88;;
47603;SDS011;33326;51.116;6.900;2022-07-26T06:55:39;13.68;;;4.18;;
47603;SDS011;33326;51.116;6.900;2022-07-26T07:00:41;14.02;;;3.67;;
47603;SDS011;33326;51.116;6.900;2022-07-26T07:05:43;17.00;;;4.40;;
47603;SDS011;33326;51.116;6.900;2022-07-26T07:10:47;17.65;;;4.50;;
47603;SDS011;33326;51.116;6.900;2022-07-26T07:15:49;13.32;;;4.38;;
47603;SDS011;33326;51.116;6.900;2022-07-26T07:20:50;17.15;;;5.32;;
47603;SDS011;33326;51.116;6.900;2022-07-26T07:25:53;16.63;;;5.25;;
47603;SDS011;33326;51.116;6.900;2022-07-26T07:30:55;14.63;;;4.85;;
47603;SDS011;33326;51.116;6.900;2022-07-26T07:35:57;15.48;;;5.85;;
47603;SDS011;33326;51.116;6.900;2022-07-26T07:41:00;22.83;;;6.65;;
47603;SDS011;33326;51.116;6.900;2022-07-26T07:46:05;17.00;;;6.78;;
47603;SDS011;33326;51.116;6.900;2022-07-26T07:51:07;18.42;;;6.50;;
47603;SDS011;33326;51.116;6.900;2022-07-26T07:56:10;18.45;;;6.50;;
47603;SDS011;33326;51.116;6.900;2022-07-26T08:01:12;18.52;;;6.90;;
47603;SDS011;33326;51.116;6.900;2022-07-26T08:06:14;16.63;;;7.07;;
47603;SDS011;33326;51.116;6.900;2022-07-26T08:11:17;17.10;;;7.30;;
47603;SDS011;33326;51.116;6.900;2022-07-26T08:16:18;12.80;;;6.43;;
47603;SDS011;33326;51.116;6.900;2022-07-26T08:21:20;18.77;;;6.90;;
47603;SDS011;33326;51.116;6.900;2022-07-26T08:26:23;17.17;;;6.85;;
47603;SDS011;33326;51.116;6.900;2022-07-26T08:31:25;15.98;;;6.20;;
47603;SDS011;33326;51.116;6.900;2022-07-26T08:36:27;19.27;;;7.03;;
47603;SDS011;33326;51.116;6.900;2022-07-26T08:41:30;17.70;;;7.00;;
47603;SDS011;33326;51.116;6.900;2022-07-26T08:46:33;16.33;;;6.93;;
47603;SDS011;33326;51.116;6.900;2022-07-26T08:51:36;15.45;;;7.60;;
47603;SDS011;33326;51.116;6.900;2022-07-26T08:56:48;17.00;;;7.75;;
47603;SDS011;33326;51.116;6.900;2022-07-26T09:01:52;15.80;;;7.07;;
47603;SDS011;33326;51.116;6.900;2022-07-26T09:06:56;13.77;;;6.82;;
47603;SDS011;33326;51.116;6.900;2022-07-26T09:12:03;15.95;;;6.40;;
47603;SDS011;33326;51.116;6.900;2022-07-26T09:17:14;14.55;;;5.68;;
47603;SDS011;33326;51.116;6.900;2022-07-26T09:22:17;13.15;;;5.53;;
47603;SDS011;33326;51.116;6.900;2022-07-26T09:27:20;15.63;;;6.07;;
47603;SDS011;33326;51.116;6.900;2022-07-26T09:32:23;18.98;;;5.90;;
47603;SDS011;33326;51.116;6.900;2022-07-26T09:37:33;16.83;;;5.55;;
47603;SDS011;33326;51.116;6.900;2022-07-26T09:42:51;11.85;;;3.63;;
47603;SDS011;33326;51.116;6.900;2022-07-26T09:47:54;13.20;;;4.65;;
47603;SDS011;33326;51.116;6.900;2022-07-26T09:52:59;10.30;;;3.88;;
47603;SDS011;33326;51.116;6.900;2022-07-26T09:58:07;8.40;;;3.58;;
47603;SDS011;33326;51.116;6.900;2022-07-26T10:03:10;9.90;;;3.60;;
47603;SDS011;33326;51.116;6.900;2022-07-26T10:08:12;8.68;;;3.00;;
47603;SDS011;33326;51.116;6.900;2022-07-26T10:13:15;6.85;;;3.05;;
47603;SDS011;33326;51.116;6.900;2022-07-26T10:23:46;12.55;;;3.17;;
47603;SDS011;33326;51.116;6.900;2022-07-26T10:28:50;8.85;;;3.33;;
47603;SDS011;33326;51.116;6.900;2022-07-26T10:33:52;14.82;;;2.80;;
47603;SDS011;33326;51.116;6.900;2022-07-26T10:44:21;5.65;;;2.50;;
47603;SDS011;33326;51.116;6.900;2022-07-26T10:49:28;7.65;;;3.00;;
47603;SDS011;33326;51.116;6.900;2022-07-26T10:54:31;8.18;;;2.78;;
47603;SDS011;33326;51.116;6.900;2022-07-26T11:00:17;5.60;;;2.47;;
47603;SDS011;33326;51.116;6.900;2022-07-26T11:05:21;5.22;;;2.30;;
47603;SDS011;33326;51.116;6.900;2022-07-26T11:10:28;4.70;;;1.98;;
47603;SDS011;33326;51.116;6.900;2022-07-26T11:15:33;6.22;;;2.20;;
47603;SDS011;33326;51.116;6.900;2022-07-26T11:20:36;7.00;;;1.90;;
47603;SDS011;33326;51.116;6.900;2022-07-26T11:25:38;7.18;;;2.10;;
47603;SDS011;33326;51.116;6.900;2022-07-26T11:30:49;5.60;;;2.10;;
47603;SDS011;33326;51.116;6.900;2022-07-26T11:35:56;4.40;;;2.22;;
47603;SDS011;33326;51.116;6.900;2022-07-26T11:40:58;4.15;;;2.28;;
47603;SDS011;33326;51.116;6.900;2022-07-26T11:46:01;6.18;;;2.17;;
47603;SDS011;33326;51.116;6.900;2022-07-26T11:51:09;4.60;;;1.90;;
47603;SDS011;33326;51.116;6.900;2022-07-26T11:56:13;5.38;;;2.00;;
47603;SDS011;33326;51.116;6.900;2022-07-26T12:01:20;5.50;;;1.70;;
47603;SDS011;33326;51.116;6.900;2022-07-26T12:06:25;4.45;;;1.50;;
47603;SDS011;33326;51.116;6.900;2022-07-26T12:11:35;3.92;;;1.40;;
47603;SDS011;33326;51.116;6.900;2022-07-26T12:16:41;2.95;;;1.17;;
47603;SDS011;33326;51.116;6.900;2022-07-26T12:21:45;4.43;;;1.40;;
47603;SDS011;33326;51.116;6.900;2022-07-26T12:26:51;6.82;;;1.63;;
47603;SDS011;33326;51.116;6.900;2022-07-26T12:32:10;3.10;;;1.25;;
47603;SDS011;33326;51.116;6.900;2022-07-26T12:37:14;4.05;;;1.58;;
47603;SDS011;33326;51.116;6.900;2022-07-26T12:42:21;3.45;;;1.40;;
47603;SDS011;33326;51.116;6.900;2022-07-26T12:47:25;4.72;;;1.52;;
47603;SDS011;33326;51.116;6.900;2022-07-26T12:52:28;2.38;;;1.45;;
47603;SDS011;33326;51.116;6.900;2022-07-26T12:57:30;4.45;;;1.50;;
47603;SDS011;33326;51.116;6.900;2022-07-26T13:02:33;4.72;;;1.30;;
47603;SDS011;33326;51.116;6.900;2022-07-26T13:07:36;2.80;;;1.15;;
47603;SDS011;33326;51.116;6.900;2022-07-26T13:12:38;3.30;;;1.10;;
47603;SDS011;33326;51.116;6.900;2022-07-26T13:17:42;2.95;;;1.27;;
47603;SDS011;33326;51.116;6.900;2022-07-26T13:22:44;2.55;;;1.20;;
47603;SDS011;33326;51.116;6.900;2022-07-26T13:27:46;2.75;;;1.33;;
47603;SDS011;33326;51.116;6.900;2022-07-26T13:32:49;2.42;;;1.30;;
47603;SDS011;33326;51.116;6.900;2022-07-26T13:37:52;4.22;;;1.50;;
47603;SDS011;33326;51.116;6.900;2022-07-26T13:42:53;1.67;;;1.10;;
47603;SDS011;33326;51.116;6.900;2022-07-26T13:47:57;2.72;;;0.98;;
47603;SDS011;33326;51.116;6.900;2022-07-26T13:52:59;1.42;;;0.90;;
47603;SDS011;33326;51.116;6.900;2022-07-26T13:58:01;4.50;;;1.25;;
47603;SDS011;33326;51.116;6.900;2022-07-26T14:03:04;2.55;;;0.77;;
47603;SDS011;33326;51.116;6.900;2022-07-26T14:08:06;3.22;;;0.93;;
47603;SDS011;33326;51.116;6.900;2022-07-26T14:13:08;3.50;;;0.95;;
47603;SDS011;33326;51.116;6.900;2022-07-26T14:18:11;2.40;;;0.90;;
47603;SDS011;33326;51.116;6.900;2022-07-26T14:23:13;3.45;;;0.90;;
47603;SDS011;33326;51.116;6.900;2022-07-26T14:28:14;2.63;;;1.00;;
47603;SDS011;33326;51.116;6.900;2022-07-26T14:33:18;4.95;;;1.13;;
47603;SDS011;33326;51.116;6.900;2022-07-26T14:38:20;2.58;;;1.10;;
47603;SDS011;33326;51.116;6.900;2022-07-26T14:43:22;4.22;;;1.20;;
47603;SDS011;33326;51.116;6.900;2022-07-26T14:48:25;4.03;;;1.45;;
47603;SDS011;33326;51.116;6.900;2022-07-26T14:53:27;2.78;;;1.05;;
47603;SDS011;33326;51.116;6.900;2022-07-26T14:58:29;2.38;;;0.93;;
47603;SDS011;33326;51.116;6.900;2022-07-26T15:03:32;1.73;;;0.90;;
47603;SDS011;33326;51.116;6.900;2022-07-26T15:08:34;2.17;;;1.17;;
47603;SDS011;33326;51.116;6.900;2022-07-26T15:13:36;4.05;;;1.17;;
47603;SDS011;33326;51.116;6.900;2022-07-26T15:18:39;3.05;;;1.02;;
47603;SDS011;33326;51.116;6.900;2022-07-26T15:23:41;3.50;;;0.98;;
47603;SDS011;33326;51.116;6.900;2022-07-26T15:28:43;3.72;;;1.30;;
47603;SDS011;33326;51.116;6.900;2022-07-26T15:33:47;3.97;;;1.40;;
47603;SDS011;33326;51.116;6.900;2022-07-26T15:38:50;4.18;;;1.10;;
47603;SDS011;33326;51.116;6.900;2022-07-26T15:43:51;5.55;;;1.33;;
47603;SDS011;33326;51.116;6.900;2022-07-26T15:48:55;4.18;;;1.00;;
47603;SDS011;33326;51.116;6.900;2022-07-26T15:53:57;3.83;;;1.55;;
47603;SDS011;33326;51.116;6.900;2022-07-26T15:58:59;3.10;;;0.93;;
47603;SDS011;33326;51.116;6.900;2022-07-26T16:04:02;2.50;;;1.10;;
47603;SDS011;33326;51.116;6.900;2022-07-26T16:09:05;2.45;;;0.88;;
47603;SDS011;33326;51.116;6.900;2022-07-26T16:14:07;3.50;;;0.90;;
47603;SDS011;33326;51.116;6.900;2022-07-26T16:19:10;1.55;;;0.85;;
47603;SDS011;33326;51.116;6.900;2022-07-26T16:24:12;2.83;;;1.02;;
47603;SDS011;33326;51.116;6.900;2022-07-26T16:29:14;3.30;;;1.10;;
47603;SDS011;33326;51.116;6.900;2022-07-26T16:34:17;2.88;;;1.13;;
47603;SDS011;33326;51.116;6.900;2022-07-26T16:39:20;1.60;;;0.80;;
47603;SDS011;33326;51.116;6.900;2022-07-26T16:44:21;2.25;;;0.90;;
47603;SDS011;33326;51.116;6.900;2022-07-26T16:49:25;2.38;;;1.15;;
47603;SDS011;33326;51.116;6.900;2022-07-26T16:54:27;1.95;;;1.42;;
47603;SDS011;33326;51.116;6.900;2022-07-26T16:59:29;2.78;;;1.25;;
47603;SDS011;33326;51.116;6.900;2022-07-26T17:04:32;4.40;;;0.88;;
47603;SDS011;33326;51.116;6.900;2022-07-26T17:09:34;2.45;;;0.95;;
47603;SDS011;33326;51.116;6.900;2022-07-26T17:14:36;1.60;;;1.00;;
47603;SDS011;33326;51.116;6.900;2022-07-26T17:19:39;2.25;;;0.80;;
47603;SDS011;33326;51.116;6.900;2022-07-26T17:24:41;4.82;;;1.67;;
47603;SDS011;33326;51.116;6.900;2022-07-26T17:29:43;2.95;;;0.90;;
47603;SDS011;33326;51.116;6.900;2022-07-26T17:34:46;2.75;;;1.08;;
47603;SDS011;33326;51.116;6.900;2022-07-26T17:39:48;4.07;;;0.90;;
47603;SDS011;33326;51.116;6.900;2022-07-26T17:44:50;3.92;;;1.45;;
47603;SDS011;33326;51.116;6.900;2022-07-26T17:49:53;2.53;;;0.90;;
47603;SDS011;33326;51.116;6.900;2022-07-26T17:54:55;1.80;;;0.95;;
47603;SDS011;33326;51.116;6.900;2022-07-26T17:59:58;3.58;;;1.17;;
47603;SDS011;33326;51.116;6.900;2022-07-26T18:05:02;4.78;;;1.00;;
47603;SDS011;33326;51.116;6.900;2022-07-26T18:10:05;2.78;;;0.93;;
47603;SDS011;33326;51.116;6.900;2022-07-26T18:15:08;4.93;;;1.13;;
47603;SDS011;33326;51.116;6.900;2022-07-26T18:20:12;6.57;;;1.70;;
47603;SDS011;33326;51.116;6.900;2022-07-26T18:25:14;4.85;;;1.50;;
47603;SDS011;33326;51.116;6.900;2022-07-26T18:30:16;4.03;;;1.20;;
47603;SDS011;33326;51.116;6.900;2022-07-26T18:35:19;5.15;;;1.30;;
47603;SDS011;33326;51.116;6.900;2022-07-26T18:40:22;2.47;;;1.10;;
47603;SDS011;33326;51.116;6.900;2022-07-26T18:45:25;5.60;;;1.23;;
47603;SDS011;33326;51.116;6.900;2022-07-26T18:50:28;5.15;;;1.33;;
47603;SDS011;33326;51.116;6.900;2022-07-26T18:55:30;5.25;;;1.60;;
47603;SDS011;33326;51.116;6.900;2022-07-26T19:00:32;5.20;;;1.00;;
47603;SDS011;33326;51.116;6.900;2022-07-26T19:05:35;4.70;;;1.30;;
47603;SDS011;33326;51.116;6.900;2022-07-26T19:10:37;6.53;;;1.30;;
47603;SDS011;33326;51.116;6.900;2022-07-26T19:15:39;4.28;;;1.38;;
47603;SDS011;33326;51.116;6.900;2022-07-26T19:20:42;3.35;;;1.17;;
47603;SDS011;33326;51.116;6.900;2022-07-26T19:25:44;4.10;;;1.20;;
47603;SDS011;33326;51.116;6.900;2022-07-26T19:30:46;6.97;;;1.48;;
47603;SDS011;33326;51.116;6.900;2022-07-26T19:35:49;5.05;;;1.50;;
47603;SDS011;33326;51.116;6.900;2022-07-26T19:40:52;7.15;;;1.60;;
47603;SDS011;33326;51.116;6.900;2022-07-26T19:45:54;6.78;;;1.80;;
47603;SDS011;33326;51.116;6.900;2022-07-26T19:50:58;10.02;;;1.92;;
47603;SDS011;33326;51.116;6.900;2022-07-26T19:56:00;4.85;;;1.63;;
47603;SDS011;33326;51.116;6.900;2022-07-26T20:01:02;6.38;;;1.55;;
47603;SDS011;33326;51.116;6.900;2022-07-26T20:06:05;8.38;;;1.70;;
47603;SDS011;33326;51.116;6.900;2022-07-26T20:11:08;7.28;;;1.60;;
47603;SDS011;33326;51.116;6.900;2022-07-26T20:16:10;5.55;;;1.73;;
47603;SDS011;33326;51.116;6.900;2022-07-26T20:21:13;4.53;;;1.67;;
47603;SDS011;33326;51.116;6.900;2022-07-26T20:26:15;8.90;;;2.10;;
47603;SDS011;33326;51.116;6.900;2022-07-26T20:31:17;5.40;;;1.80;;
47603;SDS011;33326;51.116;6.900;2022-07-26T20:36:20;5.45;;;1.73;;
47603;SDS011;33326;51.116;6.900;2022-07-26T20:41:22;5.25;;;1.70;;
47603;SDS011;33326;51.116;6.900;2022-07-26T20:46:24;6.32;;;1.88;;
47603;SDS011;33326;51.116;6.900;2022-07-26T20:51:27;6.60;;;1.73;;
47603;SDS011;33326;51.116;6.900;2022-07-26T20:56:29;7.68;;;1.60;;
47603;SDS011;33326;51.116;6.900;2022-07-26T21:01:33;6.10;;;1.65;;
47603;SDS011;33326;51.116;6.900;2022-07-26T21:06:36;8.52;;;1.77;;
47603;SDS011;33326;51.116;6.900;2022-07-26T21:11:37;7.63;;;1.52;;
47603;SDS011;33326;51.116;6.900;2022-07-26T21:16:39;6.22;;;1.70;;
47603;SDS011;33326;51.116;6.900;2022-07-26T21:21:42;4.75;;;1.33;;
47603;SDS011;33326;51.116;6.900;2022-07-26T21:26:44;5.60;;;1.90;;
47603;SDS011;33326;51.116;6.900;2022-07-26T21:31:46;4.57;;;1.50;;
47603;SDS011;33326;51.116;6.900;2022-07-26T21:36:49;8.80;;;1.88;;
47603;SDS011;33326;51.116;6.900;2022-07-26T21:41:52;5.82;;;1.60;;
47603;SDS011;33326;51.116;6.900;2022-07-26T21:46:54;6.20;;;1.50;;
47603;SDS011;33326;51.116;6.900;2022-07-26T21:51:57;5.82;;;1.80;;
47603;SDS011;33326;51.116;6.900;2022-07-26T21:56:59;8.15;;;1.65;;
47603;SDS011;33326;51.116;6.900;2022-07-26T22:02:00;6.07;;;1.50;;
47603;SDS011;33326;51.116;6.900;2022-07-26T22:07:04;4.47;;;1.10;;
47603;SDS011;33326;51.116;6.900;2022-07-26T22:12:06;5.88;;;1.35;;
47603;SDS011;33326;51.116;6.900;2022-07-26T22:17:08;4.47;;;1.10;;
47603;SDS011;33326;51.116;6.900;2022-07-26T22:22:11;6.50;;;1.83;;
47603;SDS011;33326;51.116;6.900;2022-07-26T22:27:13;5.53;;;1.50;;
47603;SDS011;33326;51.116;6.900;2022-07-26T22:32:15;7.07;;;1.42;;
47603;SDS011;33326;51.116;6.900;2022-07-26T22:37:18;4.78;;;1.38;;
47603;SDS011;33326;51.116;6.900;2022-07-26T22:42:20;6.13;;;1.60;;
47603;SDS011;33326;51.116;6.900;2022-07-26T22:47:22;5.97;;;1.50;;
47603;SDS011;33326;51.116;6.900;2022-07-26T22:52:25;6.20;;;1.23;;
47603;SDS011;33326;51.116;6.900;2022-07-26T22:57:27;4.55;;;1.50;;
47603;SDS011;33326;51.116;6.900;2022-07-26T23:02:29;6.70;;;1.65;;
47603;SDS011;33326;51.116;6.900;2022-07-26T23:07:32;6.78;;;1.40;;
47603;SDS011;33326;51.116;6.900;2022-07-26T23:12:34;4.30;;;1.25;;
47603;SDS011;33326;51.116;6.900;2022-07-26T23:17:36;5.00;;;1.48;;
47603;SDS011;33326;51.116;6.900;2022-07-26T23:22:39;6.70;;;1.55;;
47603;SDS011;33326;51.116;6.900;2022-07-26T23:27:42;3.90;;;1.30;;
47603;SDS011;33326;51.116;6.900;2022-07-26T23:32:44;6.50;;;1.60;;
47603;SDS011;33326;51.116;6.900;2022-07-26T23:37:47;5.50;;;1.30;;
47603;SDS011;33326;51.116;6.900;2022-07-26T23:42:49;5.82;;;1.58;;
47603;SDS011;33326;51.116;6.900;2022-07-26T23:47:52;4.35;;;1.45;;
47603;SDS011;33326;51.116;6.900;2022-07-26T23:52:55;4.80;;;1.27;;
47603;SDS011;33326;51.116;6.900;2022-07-26T23:57:57;4.30;;;1.25;;
